Terminal Aerodrome Forecast
Issued by NWS

Home | Current Version | Previous Version | Text Only | Print | Product List | Glossary On
Versions: 1 2 3 4 5 6 7 8 9 10 11 12 13 14 15
000
FTUS41 KPBZ 252321
TAFDUJ
TAF
KDUJ 252321Z 2600/2624 22007KT P6SM VCTS BKN035CB
     FM260100 25005KT P6SM TSRA BKN025CB
     FM260400 00000KT P6SM BKN015
     FM260900 29005KT 4SM BR BKN010
     FM261400 30004KT P6SM SCT040=

USA.gov is the U.S. government's official web portal to all federal, state and local government web resources and services.